»·PEaware :: N791JR KAVX-KMYF

N791JR :: KAVX-KMYF

FLIGHT INFORMATION

Flight Status: Arrived
Operator: Privately registered:
United States
More flights under this callsign
Pilot: Skye D. (10623)
Aircraft: CESSNA 172 SKYHAWK
(C172)
More flights by this aircraft type
Origin: KAVX Catalina
United States
Destination: KMYF Montgomery
United States
More flights between these airports :: More routes between these airports
Route: SXC V208 OCN V23 MZB
File this flight plan on PilotEdge
Remarks: CSTN56
Altitude:
(Current/Filed)
5,000ft
Speed:
(Current/Filed)
110kts
Departed: 22-Nov-17 02:21 PM
Arrived: 22-Nov-17 03:23 PM
Distance/Time
Traveled:
73nm/1:02
Distance/Time
To Go:
Arrived

Flight Plot

Page will automatically refresh every two minutes.


Map Options




Map Legend


Flown Route
Filed Route
Departure Airport
Arrival Airport
Navaid (VOR, NDB)
Fix

Horizontal Profiles

Position Reports

Time Latitude Longitude Heading Altitude Ground
Speed
22-Nov-17 14:03 33.403115 -118.415845 33 1605ft 0kts
22-Nov-17 14:04 33.403115 -118.415845 33 1605ft 0kts
22-Nov-17 14:05 33.403115 -118.415845 33 1605ft 0kts
22-Nov-17 14:06 33.403115 -118.415845 33 1605ft 0kts
22-Nov-17 14:07 33.403115 -118.415845 33 1605ft 0kts
22-Nov-17 14:08 33.403115 -118.415845 33 1605ft 0kts
22-Nov-17 14:09 33.403115 -118.415845 33 1605ft 0kts
22-Nov-17 14:10 33.403195 -118.415809 1 1605ft 4kts
22-Nov-17 14:11 33.402736 -118.418872 235 1605ft 10kts
22-Nov-17 14:12 33.402223 -118.419586 18 1605ft 0kts
22-Nov-17 14:13 33.402223 -118.419586 18 1605ft 0kts
22-Nov-17 14:14 33.402223 -118.419586 18 1605ft 0kts
22-Nov-17 14:15 33.402223 -118.419586 18 1605ft 0kts
22-Nov-17 14:16 33.402223 -118.419586 18 1605ft 0kts
22-Nov-17 14:17 33.402223 -118.419586 18 1605ft 0kts
22-Nov-17 14:18 33.402223 -118.419586 18 1605ft 0kts
22-Nov-17 14:19 33.402223 -118.419586 18 1605ft 0kts
22-Nov-17 14:20 33.402223 -118.419586 18 1605ft 0kts
22-Nov-17 14:21 33.402223 -118.419586 18 1605ft 0kts
22-Nov-17 14:22 33.402223 -118.419586 18 1605ft 0kts
22-Nov-17 14:23 33.402223 -118.419586 18 1605ft 0kts
22-Nov-17 14:24 33.402223 -118.419586 18 1605ft 0kts
22-Nov-17 14:25 33.402994 -118.419141 53 1605ft 32kts
22-Nov-17 14:26 33.415495 -118.405471 1 2175ft 74kts
22-Nov-17 14:27 33.412788 -118.428187 225 2900ft 88kts
22-Nov-17 14:28 33.392887 -118.428015 143 3655ft 81kts
22-Nov-17 14:29 33.381498 -118.406493 108 4375ft 79kts
22-Nov-17 14:30 33.373366 -118.381094 105 4928ft 94kts
22-Nov-17 14:31 33.369255 -118.348762 91 4959ft 102kts
22-Nov-17 14:32 33.366558 -118.315233 94 4961ft 101kts
22-Nov-17 14:33 33.363682 -118.280125 94 4960ft 108kts
22-Nov-17 14:34 33.360745 -118.244451 94 4960ft 108kts
22-Nov-17 14:35 33.352860 -118.209717 102 4960ft 108kts
22-Nov-17 14:36 33.346305 -118.174499 99 4960ft 108kts
22-Nov-17 14:37 33.340788 -118.139617 98 5043ft 103kts
22-Nov-17 14:38 33.335813 -118.105001 98 5052ft 107kts
22-Nov-17 14:39 33.330982 -118.069626 97 5051ft 108kts
22-Nov-17 14:40 33.326257 -118.034055 97 5051ft 108kts
22-Nov-17 14:41 33.321594 -117.998455 97 5051ft 108kts
22-Nov-17 14:42 33.316969 -117.962932 97 5051ft 108kts
22-Nov-17 14:43 33.312244 -117.926674 97 4958ft 112kts
22-Nov-17 14:44 33.307581 -117.890656 98 4949ft 107kts
22-Nov-17 14:45 33.303005 -117.855454 99 4950ft 107kts
22-Nov-17 14:46 33.298385 -117.820076 99 4960ft 108kts
22-Nov-17 14:47 33.292435 -117.784761 102 4959ft 109kts
22-Nov-17 14:48 33.286723 -117.748984 101 4959ft 110kts
22-Nov-17 14:49 33.281217 -117.712161 97 4960ft 114kts
22-Nov-17 14:50 33.275947 -117.674792 97 4960ft 114kts
22-Nov-17 14:51 33.270798 -117.637567 97 4960ft 114kts
22-Nov-17 14:52 33.265670 -117.600197 97 4960ft 114kts
22-Nov-17 14:53 33.260621 -117.563296 97 4960ft 114kts
22-Nov-17 14:54 33.255573 -117.526398 97 4960ft 114kts
22-Nov-17 14:55 33.250536 -117.489611 97 4960ft 114kts
22-Nov-17 14:56 33.245486 -117.452803 97 4960ft 114kts
22-Nov-17 14:57 33.236747 -117.418028 121 4942ft 117kts
22-Nov-17 14:58 33.219856 -117.386723 121 4942ft 117kts
22-Nov-17 14:59 33.203131 -117.355673 121 4942ft 117kts
22-Nov-17 15:00 33.187249 -117.326182 121 4941ft 117kts
22-Nov-17 15:01 33.170879 -117.295783 121 4923ft 118kts
22-Nov-17 15:02 33.154177 -117.264789 121 4923ft 117kts
22-Nov-17 15:03 33.136868 -117.233346 121 4933ft 116kts
22-Nov-17 15:04 33.119232 -117.202233 121 4933ft 116kts
22-Nov-17 15:05 33.101422 -117.170831 121 4933ft 116kts
22-Nov-17 15:06 33.083781 -117.139752 121 4924ft 116kts
22-Nov-17 15:07 33.066144 -117.108758 121 4923ft 116kts
22-Nov-17 15:08 33.048565 -117.077895 121 4924ft 116kts
22-Nov-17 15:09 33.028013 -117.052586 151 4942ft 116kts
22-Nov-17 15:10 33.000067 -117.036704 151 4987ft 113kts
22-Nov-17 15:11 32.971752 -117.020640 151 4988ft 114kts
22-Nov-17 15:12 32.943309 -117.004482 151 4961ft 117kts
22-Nov-17 15:13 32.914972 -116.988331 151 4932ft 116kts
22-Nov-17 15:14 32.887413 -116.972660 151 4880ft 118kts
22-Nov-17 15:15 32.858256 -116.955790 151 4192ft 116kts
22-Nov-17 15:16 32.830771 -116.939767 151 3980ft 111kts
22-Nov-17 15:17 32.804178 -116.924337 151 3980ft 108kts
22-Nov-17 15:18 32.778012 -116.909183 151 3981ft 107kts
22-Nov-17 15:19 32.750820 -116.899172 209 3980ft 109kts
22-Nov-17 15:20 32.739120 -116.930759 258 3884ft 113kts
22-Nov-17 15:21 32.746022 -116.961509 296 3551ft 114kts
22-Nov-17 15:22 32.758584 -116.993634 296 3011ft 115kts
22-Nov-17 15:23 32.770098 -117.023401 296 2450ft 103kts
22-Nov-17 15:24 32.781278 -117.051145 295 1963ft 98kts
22-Nov-17 15:25 32.792038 -117.078605 298 1504ft 93kts
22-Nov-17 15:26 32.802068 -117.103095 292 1025ft 83kts
22-Nov-17 15:27 32.810088 -117.124356 298 649ft 73kts
22-Nov-17 15:28 32.816165 -117.139853 261 429ft 17kts
22-Nov-17 15:29 32.814627 -117.141778 112 429ft 24kts
22-Nov-17 15:30 32.813243 -117.139997 316 429ft 4kts

Navigation Log

Ident Type
1. KAVX Airport
2. SXC Navaid
3. AVOLS Fix
4. PACIF Fix
5. HUBRD Fix
6. OCN Navaid
7. HURSI Fix
8. CARIF Fix
9. MZB Navaid
10. KMYF Airport